sensor_id;sensor_type;location;lat;lon;timestamp;P1;durP1;ratioP1;P2;durP2;ratioP2
11086;SDS011;5597;47.588;9.642;2022-11-15T00:01:42;2.93;;;2.43;;
11086;SDS011;5597;47.588;9.642;2022-11-15T00:04:08;3.10;;;2.80;;
11086;SDS011;5597;47.588;9.642;2022-11-15T00:06:35;2.87;;;2.57;;
11086;SDS011;5597;47.588;9.642;2022-11-15T00:09:00;2.70;;;2.50;;
11086;SDS011;5597;47.588;9.642;2022-11-15T00:11:27;3.53;;;2.70;;
11086;SDS011;5597;47.588;9.642;2022-11-15T00:13:56;2.60;;;2.40;;
11086;SDS011;5597;47.588;9.642;2022-11-15T00:16:22;3.00;;;2.60;;
11086;SDS011;5597;47.588;9.642;2022-11-15T00:18:48;2.87;;;2.57;;
11086;SDS011;5597;47.588;9.642;2022-11-15T00:21:14;3.10;;;2.67;;
11086;SDS011;5597;47.588;9.642;2022-11-15T00:23:41;2.47;;;2.27;;
11086;SDS011;5597;47.588;9.642;2022-11-15T00:26:06;2.23;;;2.03;;
11086;SDS011;5597;47.588;9.642;2022-11-15T00:28:35;2.93;;;2.30;;
11086;SDS011;5597;47.588;9.642;2022-11-15T00:31:04;2.47;;;2.27;;
11086;SDS011;5597;47.588;9.642;2022-11-15T00:33:32;3.20;;;2.53;;
11086;SDS011;5597;47.588;9.642;2022-11-15T00:38:37;2.50;;;2.27;;
11086;SDS011;5597;47.588;9.642;2022-11-15T00:41:04;2.20;;;2.00;;
11086;SDS011;5597;47.588;9.642;2022-11-15T00:43:31;2.40;;;2.20;;
11086;SDS011;5597;47.588;9.642;2022-11-15T00:45:57;2.20;;;2.00;;
11086;SDS011;5597;47.588;9.642;2022-11-15T00:48:23;2.27;;;2.07;;
11086;SDS011;5597;47.588;9.642;2022-11-15T00:50:49;2.20;;;2.00;;
11086;SDS011;5597;47.588;9.642;2022-11-15T00:53:15;2.27;;;2.00;;
11086;SDS011;5597;47.588;9.642;2022-11-15T00:55:41;3.00;;;2.10;;
11086;SDS011;5597;47.588;9.642;2022-11-15T00:58:07;2.37;;;2.13;;
11086;SDS011;5597;47.588;9.642;2022-11-15T01:00:33;2.33;;;2.00;;
11086;SDS011;5597;47.588;9.642;2022-11-15T01:02:59;2.30;;;2.07;;
11086;SDS011;5597;47.588;9.642;2022-11-15T01:05:26;2.10;;;1.80;;
11086;SDS011;5597;47.588;9.642;2022-11-15T01:07:52;2.70;;;2.20;;
11086;SDS011;5597;47.588;9.642;2022-11-15T01:10:19;2.13;;;1.93;;
11086;SDS011;5597;47.588;9.642;2022-11-15T01:12:45;3.43;;;2.33;;
11086;SDS011;5597;47.588;9.642;2022-11-15T01:15:11;2.80;;;2.43;;
11086;SDS011;5597;47.588;9.642;2022-11-15T01:17:37;3.50;;;2.40;;
11086;SDS011;5597;47.588;9.642;2022-11-15T01:20:02;3.47;;;2.17;;
11086;SDS011;5597;47.588;9.642;2022-11-15T01:22:28;2.50;;;2.30;;
11086;SDS011;5597;47.588;9.642;2022-11-15T01:24:54;3.43;;;2.23;;
11086;SDS011;5597;47.588;9.642;2022-11-15T01:27:19;2.40;;;2.20;;
11086;SDS011;5597;47.588;9.642;2022-11-15T01:29:45;2.40;;;2.20;;
11086;SDS011;5597;47.588;9.642;2022-11-15T01:32:10;2.47;;;2.10;;
11086;SDS011;5597;47.588;9.642;2022-11-15T01:34:36;2.50;;;2.30;;
11086;SDS011;5597;47.588;9.642;2022-11-15T01:37:02;1.97;;;1.80;;
11086;SDS011;5597;47.588;9.642;2022-11-15T01:39:27;2.20;;;2.00;;
11086;SDS011;5597;47.588;9.642;2022-11-15T01:41:53;2.40;;;2.13;;
11086;SDS011;5597;47.588;9.642;2022-11-15T01:44:39;3.20;;;2.03;;
11086;SDS011;5597;47.588;9.642;2022-11-15T01:47:12;2.30;;;2.10;;
11086;SDS011;5597;47.588;9.642;2022-11-15T01:50:05;2.13;;;1.93;;
11086;SDS011;5597;47.588;9.642;2022-11-15T01:52:34;2.57;;;2.37;;
11086;SDS011;5597;47.588;9.642;2022-11-15T01:57:31;2.60;;;2.40;;
11086;SDS011;5597;47.588;9.642;2022-11-15T01:59:57;2.43;;;2.00;;
11086;SDS011;5597;47.588;9.642;2022-11-15T02:02:24;2.23;;;2.03;;
11086;SDS011;5597;47.588;9.642;2022-11-15T02:04:49;3.30;;;2.03;;
11086;SDS011;5597;47.588;9.642;2022-11-15T02:07:16;2.30;;;2.10;;
11086;SDS011;5597;47.588;9.642;2022-11-15T02:09:43;2.60;;;2.30;;
11086;SDS011;5597;47.588;9.642;2022-11-15T02:12:09;3.00;;;2.50;;
11086;SDS011;5597;47.588;9.642;2022-11-15T02:14:38;2.50;;;2.13;;
11086;SDS011;5597;47.588;9.642;2022-11-15T02:17:16;2.50;;;2.30;;
11086;SDS011;5597;47.588;9.642;2022-11-15T02:30:59;2.93;;;2.30;;
11086;SDS011;5597;47.588;9.642;2022-11-15T02:33:51;2.30;;;2.10;;
11086;SDS011;5597;47.588;9.642;2022-11-15T02:36:20;2.77;;;2.50;;
11086;SDS011;5597;47.588;9.642;2022-11-15T02:39:09;3.27;;;2.60;;
11086;SDS011;5597;47.588;9.642;2022-11-15T02:41:46;2.33;;;2.13;;
11086;SDS011;5597;47.588;9.642;2022-11-15T02:44:18;2.73;;;2.53;;
11086;SDS011;5597;47.588;9.642;2022-11-15T02:47:26;3.33;;;3.03;;
11086;SDS011;5597;47.588;9.642;2022-11-15T02:49:49;3.53;;;3.23;;
11086;SDS011;5597;47.588;9.642;2022-11-15T02:52:17;2.93;;;2.73;;
11086;SDS011;5597;47.588;9.642;2022-11-15T02:54:54;2.63;;;2.43;;
11086;SDS011;5597;47.588;9.642;2022-11-15T03:00:06;2.77;;;2.57;;
11086;SDS011;5597;47.588;9.642;2022-11-15T03:05:25;2.93;;;2.60;;
11086;SDS011;5597;47.588;9.642;2022-11-15T03:11:03;3.20;;;2.90;;
11086;SDS011;5597;47.588;9.642;2022-11-15T03:13:39;4.90;;;3.57;;
11086;SDS011;5597;47.588;9.642;2022-11-15T03:18:53;5.87;;;4.00;;
11086;SDS011;5597;47.588;9.642;2022-11-15T03:21:23;4.43;;;3.73;;
11086;SDS011;5597;47.588;9.642;2022-11-15T03:23:50;3.47;;;3.10;;
11086;SDS011;5597;47.588;9.642;2022-11-15T03:26:18;3.90;;;3.10;;
11086;SDS011;5597;47.588;9.642;2022-11-15T03:28:48;3.77;;;3.20;;
11086;SDS011;5597;47.588;9.642;2022-11-15T03:31:18;3.27;;;2.83;;
11086;SDS011;5597;47.588;9.642;2022-11-15T03:34:04;4.37;;;3.47;;
11086;SDS011;5597;47.588;9.642;2022-11-15T03:36:35;4.70;;;4.20;;
11086;SDS011;5597;47.588;9.642;2022-11-15T03:39:04;4.20;;;3.80;;
11086;SDS011;5597;47.588;9.642;2022-11-15T03:44:06;4.70;;;4.17;;
11086;SDS011;5597;47.588;9.642;2022-11-15T03:46:56;5.10;;;4.20;;
11086;SDS011;5597;47.588;9.642;2022-11-15T03:49:30;4.57;;;4.10;;
11086;SDS011;5597;47.588;9.642;2022-11-15T03:51:59;4.47;;;4.00;;
11086;SDS011;5597;47.588;9.642;2022-11-15T03:54:26;4.20;;;3.73;;
11086;SDS011;5597;47.588;9.642;2022-11-15T03:56:52;3.87;;;3.50;;
11086;SDS011;5597;47.588;9.642;2022-11-15T03:59:17;4.17;;;3.77;;
11086;SDS011;5597;47.588;9.642;2022-11-15T04:01:43;5.00;;;4.50;;
11086;SDS011;5597;47.588;9.642;2022-11-15T04:04:08;4.73;;;4.23;;
11086;SDS011;5597;47.588;9.642;2022-11-15T04:06:34;4.47;;;4.03;;
11086;SDS011;5597;47.588;9.642;2022-11-15T04:09:00;4.63;;;4.13;;
11086;SDS011;5597;47.588;9.642;2022-11-15T04:11:25;4.50;;;4.10;;
11086;SDS011;5597;47.588;9.642;2022-11-15T04:13:51;5.43;;;3.93;;
11086;SDS011;5597;47.588;9.642;2022-11-15T04:16:16;4.53;;;3.90;;
11086;SDS011;5597;47.588;9.642;2022-11-15T04:18:42;4.93;;;4.27;;
11086;SDS011;5597;47.588;9.642;2022-11-15T04:21:08;4.90;;;4.40;;
11086;SDS011;5597;47.588;9.642;2022-11-15T04:23:52;4.90;;;4.20;;
11086;SDS011;5597;47.588;9.642;2022-11-15T04:26:19;6.07;;;4.97;;
11086;SDS011;5597;47.588;9.642;2022-11-15T04:28:46;6.30;;;5.20;;
11086;SDS011;5597;47.588;9.642;2022-11-15T04:31:31;8.13;;;5.23;;
11086;SDS011;5597;47.588;9.642;2022-11-15T04:33:57;5.03;;;4.53;;
11086;SDS011;5597;47.588;9.642;2022-11-15T04:36:23;5.57;;;5.00;;
11086;SDS011;5597;47.588;9.642;2022-11-15T04:39:10;6.33;;;5.23;;
11086;SDS011;5597;47.588;9.642;2022-11-15T04:41:36;6.47;;;5.23;;
11086;SDS011;5597;47.588;9.642;2022-11-15T04:44:01;7.57;;;6.00;;
11086;SDS011;5597;47.588;9.642;2022-11-15T04:46:27;6.70;;;5.97;;
11086;SDS011;5597;47.588;9.642;2022-11-15T04:48:53;8.50;;;6.53;;
11086;SDS011;5597;47.588;9.642;2022-11-15T04:51:19;8.00;;;6.70;;
11086;SDS011;5597;47.588;9.642;2022-11-15T04:53:45;7.77;;;6.90;;
11086;SDS011;5597;47.588;9.642;2022-11-15T04:56:10;7.17;;;6.33;;
11086;SDS011;5597;47.588;9.642;2022-11-15T04:58:36;6.90;;;6.20;;
11086;SDS011;5597;47.588;9.642;2022-11-15T05:01:20;7.40;;;5.97;;
11086;SDS011;5597;47.588;9.642;2022-11-15T05:03:46;7.47;;;6.50;;
11086;SDS011;5597;47.588;9.642;2022-11-15T05:06:30;8.67;;;6.73;;
11086;SDS011;5597;47.588;9.642;2022-11-15T05:08:56;12.77;;;9.17;;
11086;SDS011;5597;47.588;9.642;2022-11-15T05:11:22;11.57;;;8.80;;
11086;SDS011;5597;47.588;9.642;2022-11-15T05:13:48;13.73;;;10.57;;
11086;SDS011;5597;47.588;9.642;2022-11-15T05:16:14;12.77;;;10.07;;
11086;SDS011;5597;47.588;9.642;2022-11-15T05:18:39;13.37;;;11.03;;
11086;SDS011;5597;47.588;9.642;2022-11-15T05:21:12;14.87;;;11.40;;
11086;SDS011;5597;47.588;9.642;2022-11-15T05:23:39;13.60;;;11.80;;
11086;SDS011;5597;47.588;9.642;2022-11-15T05:26:06;13.47;;;11.67;;
11086;SDS011;5597;47.588;9.642;2022-11-15T05:28:35;13.80;;;11.67;;
11086;SDS011;5597;47.588;9.642;2022-11-15T05:31:02;12.17;;;10.43;;
11086;SDS011;5597;47.588;9.642;2022-11-15T05:33:28;12.30;;;10.57;;
11086;SDS011;5597;47.588;9.642;2022-11-15T05:35:54;11.63;;;10.43;;
11086;SDS011;5597;47.588;9.642;2022-11-15T05:38:25;15.37;;;13.03;;
11086;SDS011;5597;47.588;9.642;2022-11-15T05:40:50;14.27;;;12.07;;
11086;SDS011;5597;47.588;9.642;2022-11-15T05:43:16;14.53;;;12.47;;
11086;SDS011;5597;47.588;9.642;2022-11-15T05:45:42;16.43;;;12.67;;
11086;SDS011;5597;47.588;9.642;2022-11-15T05:48:08;15.07;;;12.47;;
11086;SDS011;5597;47.588;9.642;2022-11-15T05:50:36;17.13;;;13.40;;
11086;SDS011;5597;47.588;9.642;2022-11-15T05:53:03;16.27;;;12.93;;
11086;SDS011;5597;47.588;9.642;2022-11-15T05:55:29;21.97;;;13.97;;
11086;SDS011;5597;47.588;9.642;2022-11-15T05:57:56;16.23;;;13.67;;
11086;SDS011;5597;47.588;9.642;2022-11-15T06:00:22;19.77;;;13.17;;
11086;SDS011;5597;47.588;9.642;2022-11-15T06:02:47;17.37;;;13.10;;
11086;SDS011;5597;47.588;9.642;2022-11-15T06:05:13;15.20;;;12.13;;
11086;SDS011;5597;47.588;9.642;2022-11-15T06:07:38;13.43;;;11.47;;
11086;SDS011;5597;47.588;9.642;2022-11-15T06:10:04;13.97;;;11.63;;
11086;SDS011;5597;47.588;9.642;2022-11-15T06:12:30;14.80;;;12.47;;
11086;SDS011;5597;47.588;9.642;2022-11-15T06:14:56;13.40;;;11.80;;
11086;SDS011;5597;47.588;9.642;2022-11-15T06:17:21;13.63;;;12.13;;
11086;SDS011;5597;47.588;9.642;2022-11-15T06:19:47;13.77;;;11.63;;
11086;SDS011;5597;47.588;9.642;2022-11-15T06:22:12;14.03;;;12.40;;
11086;SDS011;5597;47.588;9.642;2022-11-15T06:24:38;13.87;;;11.40;;
11086;SDS011;5597;47.588;9.642;2022-11-15T06:27:03;12.50;;;11.17;;
11086;SDS011;5597;47.588;9.642;2022-11-15T06:29:29;11.90;;;10.60;;
11086;SDS011;5597;47.588;9.642;2022-11-15T06:31:54;14.23;;;11.60;;
11086;SDS011;5597;47.588;9.642;2022-11-15T06:34:20;13.77;;;11.33;;
11086;SDS011;5597;47.588;9.642;2022-11-15T06:36:46;12.93;;;11.27;;
11086;SDS011;5597;47.588;9.642;2022-11-15T06:39:11;12.90;;;11.50;;
11086;SDS011;5597;47.588;9.642;2022-11-15T06:41:37;12.47;;;10.57;;
11086;SDS011;5597;47.588;9.642;2022-11-15T06:44:02;12.37;;;10.40;;
11086;SDS011;5597;47.588;9.642;2022-11-15T06:46:28;12.60;;;10.13;;
11086;SDS011;5597;47.588;9.642;2022-11-15T06:48:54;13.63;;;11.23;;
11086;SDS011;5597;47.588;9.642;2022-11-15T06:51:19;12.17;;;10.87;;
11086;SDS011;5597;47.588;9.642;2022-11-15T06:53:45;12.40;;;10.63;;
11086;SDS011;5597;47.588;9.642;2022-11-15T06:56:11;12.03;;;10.07;;
11086;SDS011;5597;47.588;9.642;2022-11-15T06:58:36;11.37;;;9.87;;
11086;SDS011;5597;47.588;9.642;2022-11-15T07:01:04;10.80;;;9.67;;
11086;SDS011;5597;47.588;9.642;2022-11-15T07:03:31;10.63;;;9.53;;
11086;SDS011;5597;47.588;9.642;2022-11-15T07:05:59;12.27;;;9.27;;
11086;SDS011;5597;47.588;9.642;2022-11-15T07:08:26;9.87;;;8.87;;
11086;SDS011;5597;47.588;9.642;2022-11-15T07:10:53;12.23;;;10.13;;
11086;SDS011;5597;47.588;9.642;2022-11-15T07:13:19;10.63;;;9.30;;
11086;SDS011;5597;47.588;9.642;2022-11-15T07:15:44;10.53;;;8.73;;
11086;SDS011;5597;47.588;9.642;2022-11-15T07:18:10;10.03;;;8.33;;
11086;SDS011;5597;47.588;9.642;2022-11-15T07:20:36;9.37;;;8.37;;
11086;SDS011;5597;47.588;9.642;2022-11-15T07:23:02;9.13;;;8.07;;
11086;SDS011;5597;47.588;9.642;2022-11-15T07:25:29;9.43;;;8.43;;
11086;SDS011;5597;47.588;9.642;2022-11-15T07:27:57;10.30;;;8.10;;
11086;SDS011;5597;47.588;9.642;2022-11-15T07:30:24;9.57;;;8.03;;
11086;SDS011;5597;47.588;9.642;2022-11-15T07:32:57;11.17;;;7.67;;
11086;SDS011;5597;47.588;9.642;2022-11-15T07:35:24;9.63;;;7.67;;
11086;SDS011;5597;47.588;9.642;2022-11-15T07:37:56;8.80;;;7.53;;
11086;SDS011;5597;47.588;9.642;2022-11-15T07:40:23;8.10;;;7.30;;
11086;SDS011;5597;47.588;9.642;2022-11-15T07:42:49;8.97;;;7.63;;
11086;SDS011;5597;47.588;9.642;2022-11-15T07:45:18;8.20;;;7.40;;
11086;SDS011;5597;47.588;9.642;2022-11-15T07:47:50;7.80;;;7.00;;
11086;SDS011;5597;47.588;9.642;2022-11-15T07:50:16;7.50;;;6.70;;
11086;SDS011;5597;47.588;9.642;2022-11-15T07:52:42;6.83;;;6.10;;
11086;SDS011;5597;47.588;9.642;2022-11-15T07:55:08;6.57;;;5.87;;
11086;SDS011;5597;47.588;9.642;2022-11-15T07:57:34;7.00;;;6.30;;
11086;SDS011;5597;47.588;9.642;2022-11-15T07:59:59;6.07;;;5.47;;
11086;SDS011;5597;47.588;9.642;2022-11-15T08:02:25;6.40;;;5.20;;
11086;SDS011;5597;47.588;9.642;2022-11-15T08:04:50;5.63;;;4.70;;
11086;SDS011;5597;47.588;9.642;2022-11-15T08:07:16;5.03;;;4.53;;
11086;SDS011;5597;47.588;9.642;2022-11-15T08:09:42;5.30;;;4.80;;
11086;SDS011;5597;47.588;9.642;2022-11-15T08:12:07;7.37;;;5.10;;
11086;SDS011;5597;47.588;9.642;2022-11-15T08:14:33;6.07;;;5.20;;
11086;SDS011;5597;47.588;9.642;2022-11-15T08:16:59;5.37;;;4.87;;
11086;SDS011;5597;47.588;9.642;2022-11-15T08:19:25;5.90;;;5.20;;
11086;SDS011;5597;47.588;9.642;2022-11-15T08:21:50;5.60;;;4.90;;
11086;SDS011;5597;47.588;9.642;2022-11-15T08:24:16;4.87;;;4.33;;
11086;SDS011;5597;47.588;9.642;2022-11-15T08:26:41;5.80;;;4.53;;
11086;SDS011;5597;47.588;9.642;2022-11-15T08:29:07;4.93;;;4.23;;
11086;SDS011;5597;47.588;9.642;2022-11-15T08:31:33;4.90;;;4.40;;
11086;SDS011;5597;47.588;9.642;2022-11-15T08:34:01;5.40;;;4.27;;
11086;SDS011;5597;47.588;9.642;2022-11-15T08:36:27;4.50;;;3.97;;
11086;SDS011;5597;47.588;9.642;2022-11-15T08:38:53;4.80;;;4.00;;
11086;SDS011;5597;47.588;9.642;2022-11-15T08:41:30;4.37;;;3.83;;
11086;SDS011;5597;47.588;9.642;2022-11-15T08:43:57;5.17;;;4.00;;
11086;SDS011;5597;47.588;9.642;2022-11-15T08:46:23;4.00;;;3.60;;
11086;SDS011;5597;47.588;9.642;2022-11-15T08:48:48;6.10;;;4.90;;
11086;SDS011;5597;47.588;9.642;2022-11-15T08:51:14;4.17;;;3.77;;
11086;SDS011;5597;47.588;9.642;2022-11-15T08:53:40;4.37;;;3.90;;
11086;SDS011;5597;47.588;9.642;2022-11-15T08:56:07;4.83;;;4.33;;
11086;SDS011;5597;47.588;9.642;2022-11-15T08:58:35;5.07;;;4.37;;
11086;SDS011;5597;47.588;9.642;2022-11-15T09:01:01;4.90;;;4.37;;
11086;SDS011;5597;47.588;9.642;2022-11-15T09:03:27;5.00;;;4.50;;
11086;SDS011;5597;47.588;9.642;2022-11-15T09:05:56;4.43;;;4.03;;
11086;SDS011;5597;47.588;9.642;2022-11-15T09:08:23;6.43;;;5.13;;
11086;SDS011;5597;47.588;9.642;2022-11-15T09:10:50;5.60;;;5.10;;
11086;SDS011;5597;47.588;9.642;2022-11-15T09:13:16;7.17;;;5.97;;
11086;SDS011;5597;47.588;9.642;2022-11-15T09:15:42;7.20;;;6.50;;
11086;SDS011;5597;47.588;9.642;2022-11-15T09:18:07;7.93;;;7.13;;
11086;SDS011;5597;47.588;9.642;2022-11-15T09:20:33;9.40;;;7.03;;
11086;SDS011;5597;47.588;9.642;2022-11-15T09:22:59;8.03;;;7.23;;
11086;SDS011;5597;47.588;9.642;2022-11-15T09:25:28;7.13;;;6.43;;
11086;SDS011;5597;47.588;9.642;2022-11-15T09:27:55;7.13;;;6.43;;
11086;SDS011;5597;47.588;9.642;2022-11-15T09:30:21;6.43;;;5.83;;
11086;SDS011;5597;47.588;9.642;2022-11-15T09:32:47;6.90;;;5.70;;
11086;SDS011;5597;47.588;9.642;2022-11-15T09:35:13;5.60;;;5.10;;
11086;SDS011;5597;47.588;9.642;2022-11-15T09:37:39;6.13;;;5.20;;
11086;SDS011;5597;47.588;9.642;2022-11-15T09:40:04;6.10;;;5.50;;
11086;SDS011;5597;47.588;9.642;2022-11-15T09:45:41;6.13;;;5.63;;
11086;SDS011;5597;47.588;9.642;2022-11-15T09:51:41;7.43;;;6.73;;
11086;SDS011;5597;47.588;9.642;2022-11-15T09:57:03;8.70;;;7.90;;
11086;SDS011;5597;47.588;9.642;2022-11-15T10:02:50;8.13;;;7.33;;
11086;SDS011;5597;47.588;9.642;2022-11-15T10:05:41;7.60;;;6.67;;
11086;SDS011;5597;47.588;9.642;2022-11-15T10:10:44;8.23;;;7.43;;
11086;SDS011;5597;47.588;9.642;2022-11-15T10:13:13;8.03;;;7.23;;
11086;SDS011;5597;47.588;9.642;2022-11-15T10:21:56;8.37;;;7.57;;
11086;SDS011;5597;47.588;9.642;2022-11-15T10:24:44;8.70;;;7.80;;
11086;SDS011;5597;47.588;9.642;2022-11-15T10:27:11;9.57;;;8.67;;
11086;SDS011;5597;47.588;9.642;2022-11-15T10:29:46;8.10;;;7.40;;
11086;SDS011;5597;47.588;9.642;2022-11-15T10:32:15;8.00;;;7.20;;
11086;SDS011;5597;47.588;9.642;2022-11-15T10:34:43;8.20;;;7.40;;
11086;SDS011;5597;47.588;9.642;2022-11-15T10:37:08;8.20;;;7.40;;
11086;SDS011;5597;47.588;9.642;2022-11-15T10:39:34;8.80;;;7.47;;
11086;SDS011;5597;47.588;9.642;2022-11-15T10:42:45;7.90;;;7.10;;
11086;SDS011;5597;47.588;9.642;2022-11-15T10:44:53;7.33;;;6.63;;
11086;SDS011;5597;47.588;9.642;2022-11-15T10:47:26;8.10;;;7.30;;
11086;SDS011;5597;47.588;9.642;2022-11-15T10:52:57;11.73;;;9.57;;
11086;SDS011;5597;47.588;9.642;2022-11-15T10:55:26;9.67;;;8.67;;
11086;SDS011;5597;47.588;9.642;2022-11-15T10:57:56;12.37;;;10.07;;
11086;SDS011;5597;47.588;9.642;2022-11-15T11:00:32;11.50;;;10.30;;
11086;SDS011;5597;47.588;9.642;2022-11-15T11:05:33;11.63;;;10.10;;
11086;SDS011;5597;47.588;9.642;2022-11-15T11:08:21;12.13;;;10.57;;
11086;SDS011;5597;47.588;9.642;2022-11-15T11:10:52;12.03;;;10.43;;
11086;SDS011;5597;47.588;9.642;2022-11-15T11:13:23;11.47;;;10.10;;
11086;SDS011;5597;47.588;9.642;2022-11-15T11:15:53;12.07;;;10.77;;
11086;SDS011;5597;47.588;9.642;2022-11-15T11:18:32;11.60;;;9.77;;
11086;SDS011;5597;47.588;9.642;2022-11-15T11:21:05;10.80;;;9.67;;
11086;SDS011;5597;47.588;9.642;2022-11-15T11:23:54;11.30;;;10.03;;
11086;SDS011;5597;47.588;9.642;2022-11-15T11:26:42;11.07;;;9.77;;
11086;SDS011;5597;47.588;9.642;2022-11-15T11:40:20;11.07;;;9.97;;
11086;SDS011;5597;47.588;9.642;2022-11-15T11:48:44;11.23;;;10.10;;
11086;SDS011;5597;47.588;9.642;2022-11-15T11:51:25;11.30;;;10.10;;
11086;SDS011;5597;47.588;9.642;2022-11-15T11:56:38;11.40;;;10.30;;
11086;SDS011;5597;47.588;9.642;2022-11-15T12:01:56;12.17;;;10.90;;
11086;SDS011;5597;47.588;9.642;2022-11-15T12:04:29;11.47;;;10.03;;
11086;SDS011;5597;47.588;9.642;2022-11-15T12:07:01;11.93;;;10.27;;
11086;SDS011;5597;47.588;9.642;2022-11-15T12:09:35;9.50;;;8.60;;
11086;SDS011;5597;47.588;9.642;2022-11-15T12:12:11;11.37;;;10.17;;
11086;SDS011;5597;47.588;9.642;2022-11-15T12:17:34;12.43;;;11.17;;
11086;SDS011;5597;47.588;9.642;2022-11-15T12:20:06;11.97;;;10.73;;
11086;SDS011;5597;47.588;9.642;2022-11-15T12:22:43;12.37;;;11.17;;
11086;SDS011;5597;47.588;9.642;2022-11-15T12:25:18;13.40;;;12.00;;
11086;SDS011;5597;47.588;9.642;2022-11-15T12:27:47;12.50;;;11.27;;
11086;SDS011;5597;47.588;9.642;2022-11-15T12:30:19;12.73;;;11.43;;
11086;SDS011;5597;47.588;9.642;2022-11-15T12:32:54;13.47;;;12.07;;
11086;SDS011;5597;47.588;9.642;2022-11-15T12:35:34;12.83;;;11.53;;
11086;SDS011;5597;47.588;9.642;2022-11-15T12:38:04;11.37;;;10.27;;
11086;SDS011;5597;47.588;9.642;2022-11-15T12:40:35;11.63;;;10.53;;
11086;SDS011;5597;47.588;9.642;2022-11-15T12:45:33;11.80;;;10.60;;
11086;SDS011;5597;47.588;9.642;2022-11-15T13:07:02;12.27;;;10.97;;
11086;SDS011;5597;47.588;9.642;2022-11-15T13:12:02;10.57;;;9.47;;
11086;SDS011;5597;47.588;9.642;2022-11-15T13:14:39;10.63;;;9.63;;
11086;SDS011;5597;47.588;9.642;2022-11-15T13:20:27;11.73;;;9.97;;
11086;SDS011;5597;47.588;9.642;2022-11-15T13:25:18;11.77;;;10.60;;
11086;SDS011;5597;47.588;9.642;2022-11-15T13:30:41;11.73;;;10.07;;
11086;SDS011;5597;47.588;9.642;2022-11-15T13:33:39;11.80;;;10.60;;
11086;SDS011;5597;47.588;9.642;2022-11-15T13:36:06;12.60;;;11.03;;
11086;SDS011;5597;47.588;9.642;2022-11-15T13:38:39;11.77;;;10.47;;
11086;SDS011;5597;47.588;9.642;2022-11-15T13:41:21;10.53;;;9.43;;
11086;SDS011;5597;47.588;9.642;2022-11-15T13:43:52;11.00;;;9.83;;
11086;SDS011;5597;47.588;9.642;2022-11-15T13:46:22;11.17;;;10.07;;
11086;SDS011;5597;47.588;9.642;2022-11-15T13:48:57;9.77;;;8.77;;
11086;SDS011;5597;47.588;9.642;2022-11-15T13:51:36;10.90;;;9.63;;
11086;SDS011;5597;47.588;9.642;2022-11-15T13:54:16;9.27;;;8.33;;
11086;SDS011;5597;47.588;9.642;2022-11-15T13:56:53;8.80;;;7.90;;
11086;SDS011;5597;47.588;9.642;2022-11-15T13:59:44;9.20;;;7.40;;
11086;SDS011;5597;47.588;9.642;2022-11-15T14:02:19;10.00;;;8.17;;
11086;SDS011;5597;47.588;9.642;2022-11-15T14:04:51;7.60;;;6.90;;
11086;SDS011;5597;47.588;9.642;2022-11-15T14:07:25;8.47;;;7.57;;
11086;SDS011;5597;47.588;9.642;2022-11-15T14:09:53;8.47;;;7.13;;
11086;SDS011;5597;47.588;9.642;2022-11-15T14:14:49;7.90;;;6.83;;
11086;SDS011;5597;47.588;9.642;2022-11-15T14:19:52;7.50;;;6.13;;
11086;SDS011;5597;47.588;9.642;2022-11-15T14:22:19;6.70;;;6.00;;
11086;SDS011;5597;47.588;9.642;2022-11-15T14:25:04;8.33;;;6.50;;
11086;SDS011;5597;47.588;9.642;2022-11-15T14:27:43;7.03;;;6.27;;
11086;SDS011;5597;47.588;9.642;2022-11-15T14:30:29;7.43;;;6.00;;
11086;SDS011;5597;47.588;9.642;2022-11-15T14:32:54;5.97;;;5.37;;
11086;SDS011;5597;47.588;9.642;2022-11-15T14:35:21;6.50;;;5.10;;
11086;SDS011;5597;47.588;9.642;2022-11-15T14:37:47;4.90;;;4.50;;
11086;SDS011;5597;47.588;9.642;2022-11-15T14:40:14;5.30;;;4.67;;
11086;SDS011;5597;47.588;9.642;2022-11-15T14:42:45;5.03;;;4.40;;
11086;SDS011;5597;47.588;9.642;2022-11-15T14:47:46;4.23;;;3.83;;
11086;SDS011;5597;47.588;9.642;2022-11-15T14:50:16;4.17;;;3.30;;
11086;SDS011;5597;47.588;9.642;2022-11-15T14:52:43;5.60;;;4.40;;
11086;SDS011;5597;47.588;9.642;2022-11-15T14:55:31;4.30;;;3.90;;
11086;SDS011;5597;47.588;9.642;2022-11-15T14:57:57;4.63;;;4.23;;
11086;SDS011;5597;47.588;9.642;2022-11-15T15:00:24;5.20;;;4.20;;
11086;SDS011;5597;47.588;9.642;2022-11-15T15:02:50;5.20;;;4.43;;
11086;SDS011;5597;47.588;9.642;2022-11-15T15:05:27;5.20;;;4.47;;
11086;SDS011;5597;47.588;9.642;2022-11-15T15:07:55;4.40;;;4.00;;
11086;SDS011;5597;47.588;9.642;2022-11-15T15:10:20;4.93;;;4.43;;
11086;SDS011;5597;47.588;9.642;2022-11-15T15:12:47;4.90;;;4.30;;
11086;SDS011;5597;47.588;9.642;2022-11-15T15:15:13;5.90;;;4.50;;
11086;SDS011;5597;47.588;9.642;2022-11-15T15:17:43;5.07;;;4.50;;
11086;SDS011;5597;47.588;9.642;2022-11-15T15:20:09;6.97;;;5.53;;
11086;SDS011;5597;47.588;9.642;2022-11-15T15:22:35;9.53;;;8.43;;
11086;SDS011;5597;47.588;9.642;2022-11-15T15:25:02;9.27;;;8.23;;
11086;SDS011;5597;47.588;9.642;2022-11-15T15:27:28;9.03;;;8.13;;
11086;SDS011;5597;47.588;9.642;2022-11-15T15:29:54;9.80;;;8.57;;
11086;SDS011;5597;47.588;9.642;2022-11-15T15:32:20;9.30;;;7.77;;
11086;SDS011;5597;47.588;9.642;2022-11-15T15:34:46;9.60;;;7.87;;
11086;SDS011;5597;47.588;9.642;2022-11-15T15:39:47;9.57;;;7.50;;
11086;SDS011;5597;47.588;9.642;2022-11-15T15:42:13;7.80;;;6.70;;
11086;SDS011;5597;47.588;9.642;2022-11-15T15:44:39;7.47;;;6.67;;
11086;SDS011;5597;47.588;9.642;2022-11-15T15:47:09;9.67;;;8.47;;
11086;SDS011;5597;47.588;9.642;2022-11-15T15:49:41;9.33;;;8.17;;
11086;SDS011;5597;47.588;9.642;2022-11-15T15:52:07;9.40;;;8.40;;
11086;SDS011;5597;47.588;9.642;2022-11-15T15:54:33;9.40;;;8.10;;
11086;SDS011;5597;47.588;9.642;2022-11-15T15:56:58;11.70;;;8.53;;
11086;SDS011;5597;47.588;9.642;2022-11-15T15:59:24;9.17;;;8.27;;
11086;SDS011;5597;47.588;9.642;2022-11-15T16:01:49;8.63;;;7.73;;
11086;SDS011;5597;47.588;9.642;2022-11-15T16:04:15;8.97;;;7.37;;
11086;SDS011;5597;47.588;9.642;2022-11-15T16:06:41;10.07;;;8.10;;
11086;SDS011;5597;47.588;9.642;2022-11-15T16:09:16;8.67;;;7.77;;
11086;SDS011;5597;47.588;9.642;2022-11-15T16:11:43;9.07;;;8.13;;
11086;SDS011;5597;47.588;9.642;2022-11-15T16:14:10;10.33;;;8.40;;
11086;SDS011;5597;47.588;9.642;2022-11-15T16:16:36;9.97;;;8.73;;
11086;SDS011;5597;47.588;9.642;2022-11-15T16:19:02;9.80;;;8.37;;
11086;SDS011;5597;47.588;9.642;2022-11-15T16:21:28;10.67;;;8.43;;
11086;SDS011;5597;47.588;9.642;2022-11-15T16:23:54;11.77;;;9.03;;
11086;SDS011;5597;47.588;9.642;2022-11-15T16:26:26;10.70;;;9.27;;
11086;SDS011;5597;47.588;9.642;2022-11-15T16:28:53;10.43;;;8.63;;
11086;SDS011;5597;47.588;9.642;2022-11-15T16:31:19;9.77;;;8.40;;
11086;SDS011;5597;47.588;9.642;2022-11-15T16:33:48;9.10;;;7.90;;
11086;SDS011;5597;47.588;9.642;2022-11-15T16:36:24;10.73;;;8.70;;
11086;SDS011;5597;47.588;9.642;2022-11-15T16:38:51;11.60;;;8.57;;
11086;SDS011;5597;47.588;9.642;2022-11-15T16:41:17;9.80;;;8.40;;
11086;SDS011;5597;47.588;9.642;2022-11-15T16:43:46;11.17;;;9.07;;
11086;SDS011;5597;47.588;9.642;2022-11-15T16:46:14;11.40;;;9.13;;
11086;SDS011;5597;47.588;9.642;2022-11-15T16:48:44;10.43;;;8.90;;
11086;SDS011;5597;47.588;9.642;2022-11-15T16:51:10;11.03;;;9.17;;
11086;SDS011;5597;47.588;9.642;2022-11-15T16:53:36;12.17;;;9.30;;
11086;SDS011;5597;47.588;9.642;2022-11-15T16:56:02;11.30;;;8.37;;
11086;SDS011;5597;47.588;9.642;2022-11-15T16:58:28;9.23;;;8.23;;
11086;SDS011;5597;47.588;9.642;2022-11-15T17:00:55;9.97;;;8.00;;
11086;SDS011;5597;47.588;9.642;2022-11-15T17:03:21;10.27;;;8.07;;
11086;SDS011;5597;47.588;9.642;2022-11-15T17:05:48;9.17;;;7.90;;
11086;SDS011;5597;47.588;9.642;2022-11-15T17:08:14;8.37;;;7.50;;
11086;SDS011;5597;47.588;9.642;2022-11-15T17:10:40;9.77;;;6.73;;